Time;durP1;ratioP1;P1;durP2;ratioP2;P2;SDS_P1;SDS_P2;PMS_P1;PMS_P2;Temp;Humidity;BMP_temperature;BMP_pressure;BME280_temperature;BME280_humidity;BME280_pressure;Samples;Min_cycle;Max_cycle;Signal;HPM_P1;HPM_P2
2022/03/20 00:00:55;;;;;;;19.27;14.65;;;;;;;5.02;57.79;101059.84;4952977;28;20483;-64
2022/03/20 00:03:22;;;;;;;20.35;13.65;;;;;;;5.02;57.44;101056.34;4952958;28;20526;-66
2022/03/20 00:05:49;;;;;;;18.65;12.82;;;;;;;4.97;58.08;101064.19;4954010;28;20487;-65
2022/03/20 00:08:15;;;;;;;19.40;12.43;;;;;;;4.94;57.65;101049.41;4953659;28;20039;-65
2022/03/20 00:10:42;;;;;;;19.00;13.13;;;;;;;4.95;57.86;101045.94;4953645;28;20074;-66
2022/03/20 00:13:09;;;;;;;22.77;14.18;;;;;;;4.92;57.86;101052.91;4954006;28;20522;-65
2022/03/20 00:15:35;;;;;;;20.05;13.30;;;;;;;4.87;57.49;101037.28;4954081;28;20126;-65
2022/03/20 00:18:00;;;;;;;17.63;12.60;;;;;;;4.87;57.73;101033.78;4953411;28;20109;-66
2022/03/20 00:20:26;;;;;;;26.52;16.45;;;;;;;4.87;57.56;101019.00;4951400;28;20082;-65
2022/03/20 00:22:52;;;;;;;19.45;13.05;;;;;;;4.86;57.55;101027.69;4952617;28;20062;-65
2022/03/20 00:25:18;;;;;;;25.10;13.63;;;;;;;4.84;57.67;101024.22;4939111;29;20540;-65
2022/03/20 00:27:43;;;;;;;21.27;14.20;;;;;;;4.75;57.41;101016.44;4933920;29;20101;-65
2022/03/20 00:30:09;;;;;;;21.38;13.05;;;;;;;4.76;57.12;101018.19;4933037;29;20130;-65
2022/03/20 00:32:34;;;;;;;21.90;13.82;;;;;;;4.74;57.55;101017.31;4934540;29;20059;-66
2022/03/20 00:35:00;;;;;;;17.65;14.07;;;;;;;4.74;56.96;101005.09;4933237;29;20090;-66
2022/03/20 00:37:28;;;;;;;22.05;14.82;;;;;;;4.70;56.79;101005.13;4915960;29;20043;-66
2022/03/20 00:39:53;;;;;;;20.75;14.48;;;;;;;4.66;56.79;101003.44;4932996;29;20119;-66
2022/03/20 00:42:19;;;;;;;19.33;12.27;;;;;;;4.66;56.89;100993.00;4932325;29;20040;-67
2022/03/20 00:44:44;;;;;;;19.38;12.93;;;;;;;4.65;56.80;100992.13;4933202;29;20040;-65
2022/03/20 00:47:09;;;;;;;21.63;14.93;;;;;;;4.61;56.72;100986.91;4933093;29;20036;-65
2022/03/20 00:49:36;;;;;;;28.15;16.30;;;;;;;4.60;56.31;100987.78;4932883;29;20039;-66
2022/03/20 00:52:01;;;;;;;26.00;16.85;;;;;;;4.58;56.40;100979.97;4932388;29;20480;-66
2022/03/20 00:54:27;;;;;;;24.30;15.57;;;;;;;4.57;56.31;100975.59;4932004;29;20059;-65
2022/03/20 00:56:52;;;;;;;25.38;15.13;;;;;;;4.56;56.17;100973.88;4932601;29;20032;-65
2022/03/20 00:59:18;;;;;;;26.92;16.08;;;;;;;4.54;56.10;100954.75;4933193;29;20047;-66
2022/03/20 01:01:44;;;;;;;24.23;17.65;;;;;;;4.52;56.08;100959.97;4932217;29;20076;-66
2022/03/20 01:04:10;;;;;;;31.02;18.00;;;;;;;4.54;55.55;100967.78;4932670;29;20052;-65
2022/03/20 01:06:35;;;;;;;23.45;15.43;;;;;;;4.54;55.49;100959.09;4932642;29;20143;-66
2022/03/20 01:09:01;;;;;;;21.13;15.48;;;;;;;4.54;55.61;100949.53;4933016;29;20456;-65
2022/03/20 01:11:26;;;;;;;24.40;15.00;;;;;;;4.56;55.37;100944.28;4932228;29;20407;-66
2022/03/20 01:13:54;;;;;;;23.88;16.13;;;;;;;4.53;54.76;100947.78;4932269;29;20043;-65
2022/03/20 01:16:20;;;;;;;27.00;16.83;;;;;;;4.54;54.64;100938.22;4932254;29;20587;-66
2022/03/20 01:18:45;;;;;;;28.75;18.58;;;;;;;4.46;54.86;100940.88;4932788;29;20063;-66
2022/03/20 01:21:12;;;;;;;24.77;17.15;;;;;;;4.47;54.65;100937.38;4931496;29;20484;-66
2022/03/20 01:23:38;;;;;;;23.58;17.17;;;;;;;4.51;54.02;100926.03;4932678;29;20074;-66
2022/03/20 01:26:04;;;;;;;26.83;15.93;;;;;;;4.54;54.23;100914.72;4932218;29;20046;-66
2022/03/20 01:28:29;;;;;;;19.83;14.20;;;;;;;4.53;53.53;100919.06;4932604;29;20039;-66
2022/03/20 01:30:55;;;;;;;21.55;15.45;;;;;;;4.52;54.00;100918.19;4932089;29;20063;-66
2022/03/20 01:33:21;;;;;;;21.35;15.27;;;;;;;4.54;53.38;100914.72;4931525;29;20044;-66
2022/03/20 01:35:46;;;;;;;25.20;15.20;;;;;;;4.57;53.52;100906.84;4938219;28;20042;-66
2022/03/20 01:38:18;;;;;;;27.00;15.50;;;;;;;4.55;53.25;100899.00;4951018;28;20046;-66
2022/03/20 01:40:43;;;;;;;26.20;17.42;;;;;;;4.59;52.78;100899.88;4933753;29;20038;-66
2022/03/20 01:43:09;;;;;;;26.52;17.42;;;;;;;4.60;52.66;100894.63;4950789;28;20047;-65
2022/03/20 01:45:34;;;;;;;24.42;15.45;;;;;;;4.64;52.67;100880.66;4950912;28;20138;-65
2022/03/20 01:47:59;;;;;;;29.00;17.02;;;;;;;4.62;51.89;100866.75;4934060;28;20043;-65
2022/03/20 01:50:27;;;;;;;28.88;18.42;;;;;;;4.61;52.18;100866.78;4951292;28;20492;-66
2022/03/20 01:52:54;;;;;;;28.73;17.05;;;;;;;4.59;52.24;100869.41;4951856;28;20033;-65
2022/03/20 01:55:21;;;;;;;22.58;16.92;;;;;;;4.62;51.52;100868.50;4952220;28;20039;-64
2022/03/20 01:57:46;;;;;;;27.45;16.60;;;;;;;4.63;51.65;100865.03;4952051;28;20452;-66
2022/03/20 02:00:15;;;;;;;26.48;18.50;;;;;;;4.64;51.15;100851.09;4946101;28;20035;-66
2022/03/20 02:02:41;;;;;;;27.08;18.25;;;;;;;4.66;50.77;100860.63;4950859;28;20035;-66
2022/03/20 02:05:10;;;;;;;26.08;17.90;;;;;;;4.61;51.13;100854.59;4951538;28;20038;-65
2022/03/20 02:07:40;;;;;;;26.80;17.23;;;;;;;4.63;50.92;100836.31;4954077;28;20035;-67
2022/03/20 02:10:07;;;;;;;25.80;18.88;;;;;;;4.65;50.99;100844.97;4954750;28;20074;-66
2022/03/20 02:12:34;;;;;;;28.13;17.67;;;;;;;4.64;50.53;100833.66;4954510;28;20114;-66
2022/03/20 02:15:03;;;;;;;23.40;16.45;;;;;;;4.66;50.45;100833.66;4955003;28;20027;-66
2022/03/20 02:17:30;;;;;;;25.60;17.15;;;;;;;4.67;50.04;100828.41;4954908;28;20043;-65
2022/03/20 02:20:03;;;;;;;27.50;17.55;;;;;;;4.69;50.35;100821.44;4954986;28;20372;-64
2022/03/20 02:22:30;;;;;;;28.10;18.02;;;;;;;4.71;50.36;100809.22;4954518;28;20045;-65
2022/03/20 02:24:55;;;;;;;22.10;16.42;;;;;;;4.72;50.24;100815.31;4954814;28;20047;-65
2022/03/20 02:27:23;;;;;;;27.58;17.73;;;;;;;4.70;49.67;100798.78;4954856;28;20487;-65
2022/03/20 02:29:49;;;;;;;23.60;16.83;;;;;;;4.65;49.47;100798.84;4953590;28;20039;-65
2022/03/20 02:32:18;;;;;;;25.60;17.70;;;;;;;4.63;49.84;100797.13;4935000;29;20075;-65
2022/03/20 02:34:47;;;;;;;27.88;18.42;;;;;;;4.65;49.85;100780.56;4935248;29;20122;-65
2022/03/20 02:37:13;;;;;;;29.90;18.35;;;;;;;4.71;49.75;100784.84;4934984;29;20035;-65
2022/03/20 02:39:39;;;;;;;27.88;16.92;;;;;;;4.72;48.94;100777.00;4935682;29;20035;-66
2022/03/20 02:42:06;;;;;;;26.20;18.25;;;;;;;4.72;49.48;100779.59;4934306;29;20129;-66
2022/03/20 02:44:54;;;;;;;23.13;16.58;;;;;;;4.73;49.44;100770.03;4935006;29;20064;-67
2022/03/20 02:47:23;;;;;;;26.27;16.42;;;;;;;4.72;49.57;100774.38;4935159;29;20456;-67
2022/03/20 02:49:54;;;;;;;31.80;17.52;;;;;;;4.64;49.61;100776.19;4935117;29;20039;-66
2022/03/20 02:52:21;;;;;;;27.90;16.88;;;;;;;4.60;49.62;100768.41;4934614;29;20501;-67
2022/03/20 02:54:47;;;;;;;29.13;17.15;;;;;;;4.59;49.42;100767.53;4934995;29;20051;-66
2022/03/20 02:57:13;;;;;;;28.30;17.40;;;;;;;4.60;49.48;100766.66;4935475;29;20039;-66
2022/03/20 02:59:38;;;;;;;27.08;17.92;;;;;;;4.50;49.36;100760.69;4935650;29;20054;-66
2022/03/20 03:02:04;;;;;;;24.10;16.13;;;;;;;4.48;49.75;100749.38;4934625;29;20042;-67
2022/03/20 03:04:29;;;;;;;26.67;17.08;;;;;;;4.49;49.89;100750.22;4935187;29;20050;-65
2022/03/20 03:06:54;;;;;;;24.67;16.67;;;;;;;4.38;49.88;100747.72;4935389;29;20043;-65
2022/03/20 03:12:05;;;;;;;23.17;16.65;;;;;;;4.37;49.42;100745.13;4942577;29;20038;-65
2022/03/20 03:17:27;;;;;;;23.08;14.85;;;;;;;4.24;49.64;100745.22;4957014;28;20047;-66
2022/03/20 03:19:56;;;;;;;26.50;15.48;;;;;;;4.20;49.71;100746.09;4956396;29;20042;-65
2022/03/20 03:22:25;;;;;;;24.60;16.17;;;;;;;4.17;50.16;100750.50;4955304;29;20043;-66
2022/03/20 03:24:50;;;;;;;29.75;17.60;;;;;;;4.11;50.22;100738.38;4957858;29;20031;-66
2022/03/20 03:27:16;;;;;;;23.98;17.48;;;;;;;4.09;50.33;100738.38;4962481;29;20041;-66
2022/03/20 03:29:41;;;;;;;33.22;16.77;;;;;;;4.03;50.70;100741.00;4963327;29;20035;-66
2022/03/20 03:32:07;;;;;;;28.02;18.13;;;;;;;3.97;50.75;100738.47;4968156;29;20067;-66
2022/03/20 03:37:20;;;;;;;26.92;16.13;;;;;;;3.87;50.68;100726.34;4957088;29;20074;-64
2022/03/20 03:39:48;;;;;;;24.73;16.30;;;;;;;3.81;51.14;100715.94;4941548;29;20046;-66
2022/03/20 03:42:14;;;;;;;32.58;16.85;;;;;;;3.80;51.11;100722.91;4958905;28;20551;-66
2022/03/20 03:44:39;;;;;;;28.95;16.52;;;;;;;3.74;51.13;100716.88;4938144;29;20119;-66
2022/03/20 03:47:06;;;;;;;30.17;17.45;;;;;;;3.70;51.40;100704.75;4954122;28;20032;-64
2022/03/20 03:49:31;;;;;;;28.55;16.15;;;;;;;3.69;51.17;100708.19;4953919;28;20043;-66
2022/03/20 03:51:57;;;;;;;36.17;19.95;;;;;;;3.73;50.94;100716.00;4952928;28;20051;-66
2022/03/20 03:54:22;;;;;;;29.27;17.70;;;;;;;3.69;51.16;100716.88;4953243;28;20050;-65
2022/03/20 03:56:48;;;;;;;23.63;16.20;;;;;;;3.68;51.34;100707.34;4953260;28;20035;-66
2022/03/20 03:59:13;;;;;;;25.13;14.90;;;;;;;3.68;51.39;100706.50;4953312;28;20162;-66
2022/03/20 04:01:38;;;;;;;21.80;15.32;;;;;;;3.63;51.31;100699.53;4953114;28;20071;-66
2022/03/20 04:04:04;;;;;;;25.80;17.38;;;;;;;3.59;51.56;100695.25;4953113;28;20042;-66
2022/03/20 04:06:29;;;;;;;34.20;17.52;;;;;;;3.55;51.46;100693.53;4952635;28;20035;-66
2022/03/20 04:08:55;;;;;;;26.13;16.00;;;;;;;3.52;51.09;100690.94;4953082;28;20508;-65
2022/03/20 04:11:20;;;;;;;26.50;16.63;;;;;;;3.47;51.29;100687.50;4952729;28;20045;-65
2022/03/20 04:13:46;;;;;;;29.23;16.95;;;;;;;3.46;51.20;100674.47;4953617;28;20031;-66
2022/03/20 04:16:12;;;;;;;23.10;15.25;;;;;;;3.47;51.40;100673.56;4953508;28;20067;-66
2022/03/20 04:18:37;;;;;;;27.75;16.02;;;;;;;3.44;51.51;100672.72;4953425;28;20114;-66
2022/03/20 04:21:04;;;;;;;25.20;15.75;;;;;;;3.42;51.12;100664.06;4951955;28;20031;-66
2022/03/20 04:26:10;;;;;;;23.58;15.55;;;;;;;3.43;51.36;100667.53;4953098;28;20027;-66
2022/03/20 04:28:36;;;;;;;22.77;15.70;;;;;;;3.42;51.05;100665.78;4952592;28;20046;-65
2022/03/20 04:31:02;;;;;;;26.00;14.82;;;;;;;3.41;51.20;100669.28;4940780;28;20043;-65
2022/03/20 04:33:29;;;;;;;27.10;17.20;;;;;;;3.42;51.15;100663.16;4933561;29;20034;-65
2022/03/20 04:35:55;;;;;;;25.77;16.05;;;;;;;3.39;51.36;100658.84;4933144;29;20587;-65
2022/03/20 04:38:21;;;;;;;25.17;15.50;;;;;;;3.36;50.84;100656.25;4933540;29;20122;-67
2022/03/20 04:40:48;;;;;;;25.83;16.90;;;;;;;3.34;51.10;100652.78;4933185;29;20035;-66
2022/03/20 04:43:13;;;;;;;23.73;15.57;;;;;;;3.31;51.19;100646.75;4932820;29;20042;-67
2022/03/20 04:45:39;;;;;;;24.70;17.35;;;;;;;3.34;51.27;100650.19;4933924;29;20031;-67
2022/03/20 04:59:00;;;;;;;30.58;16.98;;;;;;;3.43;50.82;100644.06;4952910;29;20406;-67
2022/03/20 05:01:25;;;;;;;23.67;17.05;;;;;;;3.43;50.79;100647.53;4952888;29;20027;-67
2022/03/20 05:03:51;;;;;;;27.65;17.90;;;;;;;3.41;50.97;100648.41;4935967;29;20118;-66
2022/03/20 05:06:16;;;;;;;27.55;17.42;;;;;;;3.49;50.90;100643.16;4953520;29;20038;-66
2022/03/20 05:08:41;;;;;;;23.70;16.45;;;;;;;3.50;50.86;100640.56;4955707;29;20114;-66
2022/03/20 05:13:51;;;;;;;22.63;14.32;;;;;;;3.58;50.43;100637.88;4953574;29;20171;-65
2022/03/20 05:16:17;;;;;;;25.73;15.95;;;;;;;3.60;50.16;100644.81;4952394;29;20055;-66
2022/03/20 05:18:42;;;;;;;24.48;16.42;;;;;;;3.59;49.76;100640.50;4952436;29;20031;-66
2022/03/20 05:21:09;;;;;;;27.50;16.25;;;;;;;3.59;50.30;100639.59;4951769;29;20039;-66
2022/03/20 05:23:35;;;;;;;23.08;14.82;;;;;;;3.60;50.24;100639.59;4951064;29;20179;-66
2022/03/20 05:26:01;;;;;;;24.95;16.83;;;;;;;3.60;49.92;100638.75;4951614;29;20110;-64
2022/03/20 05:28:26;;;;;;;28.60;15.57;;;;;;;3.63;49.74;100630.91;4952031;29;20061;-67
2022/03/20 05:30:52;;;;;;;22.08;15.43;;;;;;;3.63;49.31;100628.28;4951413;29;20035;-65
2022/03/20 05:33:18;;;;;;;27.55;17.63;;;;;;;3.63;49.86;100642.19;4951383;29;20031;-66
2022/03/20 05:35:45;;;;;;;22.30;15.45;;;;;;;3.64;49.42;100635.22;4951436;29;20041;-65
2022/03/20 05:38:11;;;;;;;30.13;16.92;;;;;;;3.68;49.76;100633.47;4951825;29;20419;-66
2022/03/20 05:40:38;;;;;;;26.83;16.83;;;;;;;3.64;50.85;100627.41;4951125;28;20454;-66
2022/03/20 05:43:04;;;;;;;25.92;17.98;;;;;;;3.66;50.80;100625.66;4950797;28;20480;-66
2022/03/20 05:45:29;;;;;;;27.63;16.52;;;;;;;3.71;50.06;100617.78;4948446;28;20046;-66
2022/03/20 05:47:56;;;;;;;28.33;17.92;;;;;;;3.74;50.11;100629.09;4951577;28;20094;-66
2022/03/20 05:50:23;;;;;;;27.55;18.20;;;;;;;3.75;51.29;100617.75;4950856;28;20043;-66
2022/03/20 05:52:48;;;;;;;30.05;18.65;;;;;;;3.75;52.00;100619.50;4934080;28;20479;-66
2022/03/20 05:55:14;;;;;;;28.80;19.48;;;;;;;3.62;55.96;100609.19;4952207;28;20041;-65
2022/03/20 06:00:26;;;;;;;34.35;20.88;;;;;;;3.41;57.87;100589.34;4937179;28;20049;-68
2022/03/20 06:02:52;;;;;;;27.05;18.73;;;;;;;3.47;58.01;100585.84;4950681;28;20059;-66
2022/03/20 06:05:18;;;;;;;27.55;19.27;;;;;;;3.48;57.45;100582.34;4951173;28;20043;-67
2022/03/20 06:07:46;;;;;;;31.80;19.98;;;;;;;3.55;57.17;100581.41;4951377;28;20074;-67
2022/03/20 06:10:13;;;;;;;31.58;19.98;;;;;;;3.60;57.13;100574.44;4951799;28;20035;-65
2022/03/20 06:12:39;;;;;;;31.55;18.00;;;;;;;3.69;56.41;100577.81;4951047;28;20122;-67
2022/03/20 06:15:08;;;;;;;25.70;17.08;;;;;;;3.78;56.00;100577.75;4933971;28;20107;-66
2022/03/20 06:17:47;;;;;;;30.40;18.35;;;;;;;3.84;54.71;100575.09;4951278;28;20479;-65
2022/03/20 06:20:14;;;;;;;28.02;19.58;;;;;;;3.90;54.55;100579.41;4950890;28;20495;-66
2022/03/20 06:22:44;;;;;;;25.95;18.42;;;;;;;3.97;54.01;100581.06;4951163;28;20052;-67
2022/03/20 06:25:12;;;;;;;27.05;17.33;;;;;;;3.97;53.20;100576.72;4951006;28;20039;-67
2022/03/20 06:27:49;;;;;;;28.00;19.45;;;;;;;4.03;52.22;100576.63;4951292;28;20555;-67
2022/03/20 06:30:16;;;;;;;26.52;17.85;;;;;;;4.12;51.47;100572.22;4950661;28;20074;-66
2022/03/20 06:32:42;;;;;;;29.88;18.05;;;;;;;4.21;50.97;100573.00;4933710;29;20045;-66
2022/03/20 06:35:09;;;;;;;29.58;18.67;;;;;;;4.27;50.48;100567.69;4950813;28;20102;-66
2022/03/20 06:37:39;;;;;;;22.80;18.42;;;;;;;4.42;50.69;100571.88;4950696;28;20063;-64
2022/03/20 06:40:06;;;;;;;30.55;19.02;;;;;;;4.52;50.64;100572.66;4951087;28;20558;-64
2022/03/20 06:42:31;;;;;;;30.05;18.48;;;;;;;4.51;50.54;100565.72;4950515;28;20411;-67
2022/03/20 06:45:01;;;;;;;28.05;19.48;;;;;;;4.56;50.65;100568.25;4951126;28;20086;-66
2022/03/20 06:47:27;;;;;;;29.13;18.15;;;;;;;4.58;51.05;100574.31;4951222;28;20067;-66
2022/03/20 06:49:53;;;;;;;29.02;19.00;;;;;;;4.59;51.71;100561.25;4950995;28;20035;-66
2022/03/20 06:52:22;;;;;;;25.80;18.55;;;;;;;4.63;51.52;100557.72;4951560;28;20045;-67
2022/03/20 06:54:47;;;;;;;31.17;19.55;;;;;;;4.76;51.32;100553.19;4955445;28;20035;-67
2022/03/20 06:57:13;;;;;;;28.75;21.50;;;;;;;4.76;51.67;100550.59;4956029;28;20530;-66
2022/03/20 06:59:38;;;;;;;33.28;20.88;;;;;;;4.72;51.82;100552.34;4955656;28;20035;-66
2022/03/20 07:02:05;;;;;;;28.30;19.75;;;;;;;4.65;51.94;100542.00;4954569;28;20450;-66
2022/03/20 07:04:30;;;;;;;29.67;22.25;;;;;;;4.67;52.16;100555.91;4954659;28;20039;-66
2022/03/20 07:06:55;;;;;;;30.80;20.13;;;;;;;4.72;51.91;100544.53;4954294;28;20046;-65
2022/03/20 07:09:20;;;;;;;34.08;20.30;;;;;;;4.78;51.70;100551.44;4954352;28;20487;-64
2022/03/20 07:11:46;;;;;;;27.52;20.17;;;;;;;5.00;51.51;100538.94;4953833;28;20407;-64
2022/03/20 07:14:11;;;;;;;30.52;19.73;;;;;;;5.10;51.15;100545.75;4954703;28;20118;-66
2022/03/20 07:16:38;;;;;;;25.50;18.10;;;;;;;5.36;50.47;100545.34;4954244;28;20063;-66
2022/03/20 07:19:04;;;;;;;30.38;20.85;;;;;;;5.56;50.40;100538.94;4954440;28;20039;-66
2022/03/20 07:21:32;;;;;;;32.90;19.77;;;;;;;5.67;50.03;100534.41;4936763;28;20179;-66
2022/03/20 07:23:58;;;;;;;28.83;19.98;;;;;;;5.91;49.23;100537.50;4954199;28;20031;-67
2022/03/20 07:31:52;;;;;;;26.33;18.92;;;;;;;6.07;47.81;100528.47;4953165;28;20114;-65
2022/03/20 07:34:17;;;;;;;30.23;21.45;;;;;;;6.03;47.67;100529.44;4953711;28;20407;-66
2022/03/20 07:36:43;;;;;;;29.77;19.55;;;;;;;5.93;47.34;100522.59;4936332;28;20094;-66
2022/03/20 07:39:08;;;;;;;35.17;21.75;;;;;;;5.82;47.91;100528.91;4954187;28;20070;-66
2022/03/20 07:41:34;;;;;;;32.47;20.60;;;;;;;5.89;47.76;100523.56;4952538;28;20042;-67
2022/03/20 07:43:59;;;;;;;27.58;20.52;;;;;;;5.98;47.29;100524.28;4953678;28;20031;-68
2022/03/20 07:46:25;;;;;;;33.75;21.00;;;;;;;5.96;47.28;100522.59;4936719;28;20496;-67
2022/03/20 07:48:50;;;;;;;26.80;20.05;;;;;;;5.89;47.10;100520.94;4953996;28;20039;-67
2022/03/20 07:51:17;;;;;;;33.10;19.00;;;;;;;5.90;47.39;100535.75;4935815;28;20031;-66
2022/03/20 07:53:43;;;;;;;30.08;20.38;;;;;;;5.91;47.33;100537.50;4953876;28;20415;-67
2022/03/20 07:56:09;;;;;;;25.92;18.25;;;;;;;6.03;46.80;100534.69;4953331;28;20035;-67
2022/03/20 07:58:34;;;;;;;27.15;17.55;;;;;;;6.04;47.00;100536.41;4953593;28;20411;-64
2022/03/20 08:01:00;;;;;;;28.73;19.60;;;;;;;6.41;46.10;100546.16;4952988;28;20039;-66
2022/03/20 08:03:25;;;;;;;31.23;22.45;;;;;;;6.50;45.55;100545.09;4952882;28;20038;-66
2022/03/20 08:05:50;;;;;;;26.17;20.27;;;;;;;6.76;45.20;100541.94;4952404;28;20046;-66
2022/03/20 08:08:16;;;;;;;29.40;19.90;;;;;;;7.21;44.36;100544.44;4953434;28;20152;-65
2022/03/20 08:10:43;;;;;;;27.67;19.13;;;;;;;7.78;44.12;100538.69;4953529;28;20039;-65
2022/03/20 08:13:10;;;;;;;28.15;17.88;;;;;;;8.48;41.56;100537.72;4953007;28;20107;-67
2022/03/20 08:15:36;;;;;;;28.77;18.30;;;;;;;9.28;40.27;100528.28;4953282;28;20110;-66
2022/03/20 08:18:02;;;;;;;29.50;20.23;;;;;;;9.51;39.57;100524.91;4953328;28;20412;-64
2022/03/20 08:20:27;;;;;;;27.73;20.60;;;;;;;9.77;38.26;100524.03;4952738;28;20039;-65
2022/03/20 08:22:52;;;;;;;27.08;20.60;;;;;;;9.39;39.07;100514.75;4952837;28;20054;-65
2022/03/20 08:25:18;;;;;;;30.13;21.23;;;;;;;9.20;39.15;100520.59;4952980;28;20178;-64
2022/03/20 08:27:51;;;;;;;24.02;19.25;;;;;;;8.75;39.80;100513.25;4953043;28;20121;-66
2022/03/20 08:30:17;;;;;;;25.73;18.60;;;;;;;8.42;41.19;100516.84;4935794;28;20071;-66
2022/03/20 08:32:49;;;;;;;25.67;19.83;;;;;;;8.08;41.69;100517.78;4952444;28;20067;-66
2022/03/20 08:35:19;;;;;;;24.73;18.08;;;;;;;7.80;42.28;100513.28;4953061;28;20038;-64
2022/03/20 08:37:45;;;;;;;29.42;21.27;;;;;;;7.57;42.70;100515.59;4953144;28;20119;-67
2022/03/20 08:40:15;;;;;;;26.35;19.58;;;;;;;7.48;43.33;100519.31;4953084;28;20040;-66
2022/03/20 08:42:44;;;;;;;28.70;20.48;;;;;;;7.37;43.11;100513.47;4952432;28;20043;-67
2022/03/20 08:45:11;;;;;;;27.55;20.02;;;;;;;7.31;43.60;100509.25;4951692;28;20147;-66
2022/03/20 08:47:38;;;;;;;27.35;19.75;;;;;;;7.32;43.83;100503.09;4952478;28;20038;-65
2022/03/20 08:50:03;;;;;;;29.95;18.80;;;;;;;7.34;43.49;100503.94;4951863;28;20577;-66
2022/03/20 08:52:29;;;;;;;32.65;20.30;;;;;;;7.25;43.59;100512.84;4951952;28;20121;-66
2022/03/20 08:54:54;;;;;;;30.42;20.13;;;;;;;7.10;43.71;100519.34;4952110;28;20035;-65
2022/03/20 08:57:20;;;;;;;26.70;18.35;;;;;;;7.06;44.27;100522.94;4952686;28;20059;-65
2022/03/20 08:59:45;;;;;;;28.80;18.88;;;;;;;7.05;44.02;100522.97;4952467;28;20039;-67
2022/03/20 09:02:10;;;;;;;28.58;20.48;;;;;;;7.03;44.32;100524.75;4952424;28;20039;-66
2022/03/20 09:04:36;;;;;;;31.13;19.98;;;;;;;6.99;44.97;100534.47;4935218;28;20086;-67
2022/03/20 09:07:01;;;;;;;29.75;19.05;;;;;;;6.98;44.51;100527.47;4952555;28;20027;-64
2022/03/20 09:09:27;;;;;;;27.30;19.10;;;;;;;7.05;44.73;100523.81;4952398;28;20047;-64
2022/03/20 09:11:52;;;;;;;28.90;19.30;;;;;;;7.02;44.70;100526.53;4951566;28;20043;-65
2022/03/20 09:14:18;;;;;;;27.67;20.00;;;;;;;7.02;44.54;100520.41;4951755;28;20487;-66
2022/03/20 09:19:27;;;;;;;32.78;20.30;;;;;;;6.85;45.09;100516.41;4952738;28;20046;-65
2022/03/20 09:21:52;;;;;;;31.25;19.20;;;;;;;6.85;45.66;100521.66;4951849;28;20344;-66
2022/03/20 09:24:18;;;;;;;29.73;19.30;;;;;;;6.87;45.05;100511.16;4952652;28;20479;-65
2022/03/20 09:26:44;;;;;;;27.08;18.60;;;;;;;6.92;44.88;100504.03;4953556;28;20039;-65
2022/03/20 09:29:10;;;;;;;28.83;20.52;;;;;;;6.93;45.18;100500.50;4954722;28;20043;-67
2022/03/20 09:31:35;;;;;;;32.63;22.25;;;;;;;6.96;45.45;100503.03;4953783;28;20066;-66
2022/03/20 09:34:01;;;;;;;31.10;22.40;;;;;;;7.04;44.78;100503.75;4957455;28;20039;-67
2022/03/20 09:36:27;;;;;;;31.77;21.35;;;;;;;7.03;45.07;100491.53;4957207;28;20082;-67
2022/03/20 09:38:53;;;;;;;27.48;20.00;;;;;;;7.18;44.51;100495.53;4956377;28;20043;-68
2022/03/20 09:41:23;;;;;;;26.92;19.38;;;;;;;7.29;44.66;100492.69;4956152;28;20123;-66
2022/03/20 09:43:48;;;;;;;34.22;21.65;;;;;;;7.41;44.23;100487.13;4947820;28;20031;-65
2022/03/20 09:46:19;;;;;;;31.90;21.35;;;;;;;7.38;44.55;100488.97;4954512;28;20487;-65
2022/03/20 09:48:47;;;;;;;31.58;21.35;;;;;;;7.37;44.32;100489.88;4939876;28;20455;-67
2022/03/20 09:51:12;;;;;;;27.63;20.17;;;;;;;7.51;44.47;100490.41;4956008;28;20039;-67
2022/03/20 09:53:38;;;;;;;32.72;20.85;;;;;;;7.87;43.71;100485.06;4955209;28;20031;-66
2022/03/20 09:56:06;;;;;;;28.17;20.40;;;;;;;8.23;43.31;100493.72;4955468;28;20093;-67
2022/03/20 09:58:31;;;;;;;29.15;21.13;;;;;;;9.12;41.14;100492.84;4955172;28;20090;-64
2022/03/20 10:00:57;;;;;;;32.33;21.55;;;;;;;9.73;40.11;100496.06;4956835;28;20480;-67
2022/03/20 10:03:24;;;;;;;33.83;23.55;;;;;;;10.35;38.62;100492.13;4955477;28;20036;-67
2022/03/20 10:06:06;;;;;;;27.70;21.98;;;;;;;9.82;39.56;100486.97;4955781;28;20031;-66
2022/03/20 10:08:32;;;;;;;28.95;19.60;;;;;;;9.46;39.94;100493.47;4955239;28;20043;-67
2022/03/20 10:11:17;;;;;;;31.40;21.90;;;;;;;9.40;40.14;100484.91;4954856;28;20031;-66
2022/03/20 10:14:05;;;;;;;26.35;21.58;;;;;;;9.26;40.13;100492.41;4956290;28;20039;-66
2022/03/20 10:16:31;;;;;;;27.70;21.90;;;;;;;9.24;40.67;100492.44;4954192;28;20039;-66
2022/03/20 10:18:56;;;;;;;26.77;20.92;;;;;;;9.28;41.12;100496.72;4938597;28;20035;-65
2022/03/20 10:21:45;;;;;;;30.92;22.60;;;;;;;9.40;40.97;100501.56;4953367;28;20070;-65
2022/03/20 10:24:15;;;;;;;25.98;19.95;;;;;;;9.38;40.42;100499.91;4953490;28;20035;-67
2022/03/20 10:26:41;;;;;;;26.77;20.63;;;;;;;9.46;40.54;100498.72;4953237;28;20027;-66
2022/03/20 10:29:14;;;;;;;35.33;21.13;;;;;;;9.36;40.45;100502.56;4956299;28;20041;-66
2022/03/20 10:31:49;;;;;;;26.77;19.83;;;;;;;9.29;40.53;100495.78;4956787;28;20521;-67
2022/03/20 10:34:15;;;;;;;29.15;21.60;;;;;;;9.14;41.26;100502.41;4956765;28;20039;-67
2022/03/20 10:36:43;;;;;;;30.20;21.65;;;;;;;9.09;41.51;100501.69;4956945;28;20043;-66
2022/03/20 10:39:11;;;;;;;29.40;19.67;;;;;;;9.11;41.60;100497.25;4956560;28;20059;-66
2022/03/20 10:41:38;;;;;;;30.23;21.13;;;;;;;9.05;41.25;100504.47;4955442;28;20047;-66
2022/03/20 10:44:15;;;;;;;31.70;21.40;;;;;;;8.99;42.42;100502.88;4954785;28;20043;-68
2022/03/20 10:46:41;;;;;;;30.95;20.35;;;;;;;8.79;42.19;100496.47;4954967;28;20031;-66
2022/03/20 10:49:07;;;;;;;35.10;22.58;;;;;;;8.65;42.09;100513.56;4954128;28;20035;-68
2022/03/20 10:51:40;;;;;;;31.02;21.13;;;;;;;8.62;42.58;100509.25;4953600;29;20241;-66
2022/03/20 10:54:08;;;;;;;27.83;21.08;;;;;;;8.58;43.09;100524.25;4954687;29;20043;-66
2022/03/20 10:56:34;;;;;;;28.15;20.05;;;;;;;8.53;42.68;100520.91;4954496;29;20047;-67
2022/03/20 10:59:10;;;;;;;31.95;21.88;;;;;;;8.56;43.11;100520.78;4954368;29;20118;-66
2022/03/20 11:01:37;;;;;;;31.63;21.95;;;;;;;8.54;43.21;100527.00;4953788;29;20070;-66
2022/03/20 11:04:08;;;;;;;30.17;20.00;;;;;;;8.57;43.55;100522.53;4954294;29;20039;-66
2022/03/20 11:06:35;;;;;;;29.23;20.20;;;;;;;8.67;42.58;100515.25;4954420;29;20035;-65
2022/03/20 11:09:04;;;;;;;29.67;21.17;;;;;;;8.59;43.14;100518.09;4954236;29;20035;-68
2022/03/20 11:11:32;;;;;;;31.45;22.58;;;;;;;8.64;42.55;100522.34;4953772;29;20039;-67
2022/03/20 11:13:58;;;;;;;25.23;20.13;;;;;;;8.65;43.22;100509.16;4954360;29;20035;-69
2022/03/20 11:16:26;;;;;;;33.08;23.00;;;;;;;8.70;42.50;100502.00;4954076;29;20031;-67
2022/03/20 11:18:53;;;;;;;26.15;19.63;;;;;;;8.63;42.71;100510.13;4954694;29;20039;-67
2022/03/20 11:21:24;;;;;;;26.88;19.02;;;;;;;8.66;43.38;100512.66;4953969;29;20073;-67
2022/03/20 11:23:51;;;;;;;27.83;21.58;;;;;;;8.70;42.63;100506.41;4954669;29;20118;-67
2022/03/20 11:26:20;;;;;;;29.77;23.42;;;;;;;8.57;42.93;100505.91;4953815;29;20086;-67
2022/03/20 11:28:50;;;;;;;27.85;19.35;;;;;;;8.58;43.36;100513.72;4954188;29;20038;-66
2022/03/20 11:31:16;;;;;;;30.52;21.48;;;;;;;8.69;43.22;100504.66;4953956;29;20073;-65
2022/03/20 11:33:43;;;;;;;33.20;21.85;;;;;;;8.67;43.20;100504.72;4954968;29;20113;-67
2022/03/20 11:36:09;;;;;;;28.17;19.63;;;;;;;8.67;43.41;100507.34;4953886;29;20035;-66
2022/03/20 11:38:37;;;;;;;30.83;20.98;;;;;;;8.78;43.91;100504.41;4953521;28;20119;-67
2022/03/20 11:41:17;;;;;;;34.30;21.67;;;;;;;8.84;43.38;100503.38;4952986;28;20506;-67
2022/03/20 11:44:22;;;;;;;28.13;21.65;;;;;;;8.96;42.70;100503.00;4953912;28;20487;-66
2022/03/20 11:47:16;;;;;;;33.58;20.85;;;;;;;9.13;42.68;100505.06;4953035;28;20042;-63
2022/03/20 11:49:42;;;;;;;27.90;20.95;;;;;;;9.27;42.52;100509.91;4953742;28;20118;-64
2022/03/20 11:52:13;;;;;;;31.27;21.02;;;;;;;9.32;41.94;100519.34;4952999;28;20114;-65